Time;durP1;ratioP1;P1;durP2;ratioP2;P2;SDS_P1;SDS_P2;PMS_P1;PMS_P2;Temp;Humidity;BMP_temperature;BMP_pressure;BME280_temperature;BME280_humidity;BME280_pressure;Samples;Min_cycle;Max_cycle;Signal;HPM_P1;HPM_P2
2021/11/16 00:00:48;;;;;;;56.97;33.70;;;2.50;99.90;;;;;;5050046;28;20424;-52
2021/11/16 00:03:14;;;;;;;63.77;32.77;;;2.50;99.90;;;;;;5046455;28;20586;-49
2021/11/16 00:05:40;;;;;;;62.77;32.33;;;2.50;99.90;;;;;;5049657;28;20197;-49
2021/11/16 00:08:07;;;;;;;63.25;33.58;;;2.40;99.90;;;;;;5049643;28;20404;-52
2021/11/16 00:10:34;;;;;;;63.10;32.85;;;2.40;99.90;;;;;;5048082;28;20255;-50
2021/11/16 00:13:01;;;;;;;54.90;32.40;;;2.30;99.90;;;;;;5049001;28;20178;-50
2021/11/16 00:15:26;;;;;;;60.47;31.80;;;2.30;99.90;;;;;;5048182;28;20183;-50
2021/11/16 00:17:52;;;;;;;54.50;31.80;;;2.30;99.90;;;;;;5049737;28;20918;-49
2021/11/16 00:20:19;;;;;;;59.27;33.03;;;2.30;99.90;;;;;;5048157;28;20420;-46
2021/11/16 00:22:45;;;;;;;52.83;31.33;;;2.20;99.90;;;;;;5039580;28;20648;-50
2021/11/16 00:27:41;;;;;;;55.75;32.42;;;2.20;99.90;;;;;;5048969;28;20185;-50
2021/11/16 00:30:08;;;;;;;68.22;33.10;;;2.20;99.90;;;;;;5047855;28;20178;-50
2021/11/16 00:32:34;;;;;;;65.65;34.47;;;2.10;99.90;;;;;;5045908;28;20187;-59
2021/11/16 00:35:01;;;;;;;58.83;32.10;;;2.10;99.90;;;;;;5049200;28;20188;-59
2021/11/16 00:37:27;;;;;;;62.47;35.00;;;2.10;99.90;;;;;;5032514;28;20205;-59
2021/11/16 00:40:02;;;;;;;64.55;33.65;;;2.00;99.90;;;;;;5029018;28;20182;-59
2021/11/16 00:42:28;;;;;;;64.32;34.08;;;2.00;99.90;;;;;;5044324;28;20651;-60
2021/11/16 00:44:54;;;;;;;63.37;33.73;;;2.00;99.90;;;;;;5049043;28;20197;-59
2021/11/16 00:47:20;;;;;;;66.18;34.90;;;2.00;99.90;;;;;;5047233;28;20194;-60
2021/11/16 00:49:47;;;;;;;57.43;33.73;;;2.00;99.90;;;;;;5049135;28;20205;-59
2021/11/16 00:52:12;;;;;;;55.25;32.10;;;2.00;99.90;;;;;;5052718;28;20464;-59
2021/11/16 00:54:39;;;;;;;58.63;32.77;;;1.90;99.90;;;;;;5053267;28;20205;-59
2021/11/16 00:57:05;;;;;;;64.65;33.15;;;1.90;99.90;;;;;;5057386;28;20185;-59
2021/11/16 00:59:32;;;;;;;62.88;32.40;;;1.90;99.90;;;;;;5052158;28;20691;-60
2021/11/16 01:01:58;;;;;;;60.03;32.42;;;1.90;99.90;;;;;;5040109;28;20182;-58
2021/11/16 01:04:28;;;;;;;58.57;33.80;;;1.90;99.90;;;;;;5052590;28;20190;-59
2021/11/16 01:06:54;;;;;;;61.33;33.90;;;1.90;99.90;;;;;;5057924;28;20436;-58
2021/11/16 01:09:20;;;;;;;65.10;34.90;;;1.90;99.90;;;;;;5045657;28;20183;-59
2021/11/16 01:11:46;;;;;;;62.35;32.30;;;1.90;99.90;;;;;;5037604;28;20182;-60
2021/11/16 01:14:11;;;;;;;56.63;31.40;;;1.90;99.90;;;;;;5039639;28;20522;-59
2021/11/16 01:16:38;;;;;;;56.80;31.80;;;1.80;99.90;;;;;;5031423;28;20651;-59
2021/11/16 01:19:07;;;;;;;58.63;32.03;;;1.80;99.90;;;;;;5040652;28;20189;-58
2021/11/16 01:21:33;;;;;;;54.03;30.40;;;1.80;99.90;;;;;;5031647;28;20529;-59
2021/11/16 01:23:59;;;;;;;54.55;32.00;;;1.70;99.90;;;;;;5038254;28;20198;-59
2021/11/16 01:26:25;;;;;;;70.82;33.33;;;1.70;99.90;;;;;;5050004;28;20220;-59
2021/11/16 01:28:51;;;;;;;56.10;29.90;;;1.60;99.90;;;;;;5050303;28;20186;-57
2021/11/16 01:31:17;;;;;;;60.93;34.27;;;1.60;99.90;;;;;;5050618;28;20181;-59
2021/11/16 01:33:53;;;;;;;60.55;33.85;;;1.60;99.90;;;;;;5052419;28;20217;-58
2021/11/16 01:36:19;;;;;;;63.17;31.77;;;1.60;99.90;;;;;;5040779;28;20186;-58
2021/11/16 01:38:45;;;;;;;59.40;31.40;;;1.60;99.90;;;;;;5052227;28;20194;-58
2021/11/16 01:41:13;;;;;;;63.87;33.60;;;1.60;99.90;;;;;;5052010;28;20195;-59
2021/11/16 01:43:40;;;;;;;60.53;32.90;;;1.60;99.90;;;;;;5044289;28;20446;-54
2021/11/16 01:46:11;;;;;;;60.42;34.08;;;1.70;99.90;;;;;;5032428;28;20587;-57
2021/11/16 01:48:38;;;;;;;67.75;34.88;;;1.70;99.90;;;;;;5038993;28;20185;-59
2021/11/16 01:51:03;;;;;;;63.00;34.42;;;1.80;99.90;;;;;;5035983;28;20230;-59
2021/11/16 01:53:30;;;;;;;60.63;33.70;;;1.80;99.90;;;;;;5045148;28;20193;-59
2021/11/16 01:55:57;;;;;;;56.05;32.05;;;1.70;99.90;;;;;;5060880;28;20434;-57
2021/11/16 01:58:23;;;;;;;57.65;31.83;;;1.70;99.90;;;;;;5040051;28;20278;-57
2021/11/16 02:00:50;;;;;;;66.50;35.00;;;1.60;99.90;;;;;;5039305;28;20191;-58
2021/11/16 02:03:16;;;;;;;60.40;32.80;;;1.60;99.90;;;;;;5032996;28;20528;-57
2021/11/16 02:05:46;;;;;;;63.60;34.00;;;1.50;99.90;;;;;;5044665;28;20546;-56
2021/11/16 02:08:13;;;;;;;60.67;33.20;;;1.50;99.90;;;;;;5052187;28;20173;-58
2021/11/16 02:10:42;;;;;;;60.92;33.65;;;1.50;99.90;;;;;;5051198;28;20232;-58
2021/11/16 02:13:07;;;;;;;60.88;32.45;;;1.40;99.90;;;;;;5052067;28;20585;-57
2021/11/16 02:15:37;;;;;;;58.80;31.10;;;1.40;99.90;;;;;;5051309;28;20178;-56
2021/11/16 02:18:04;;;;;;;72.43;34.08;;;1.30;99.90;;;;;;5051640;28;20496;-57
2021/11/16 02:20:31;;;;;;;57.88;34.00;;;1.30;99.90;;;;;;5050586;28;20181;-58
2021/11/16 02:22:57;;;;;;;59.65;32.10;;;1.30;99.90;;;;;;5045797;28;20182;-58
2021/11/16 02:25:23;;;;;;;60.00;32.30;;;1.30;99.90;;;;;;5047262;28;20206;-59
2021/11/16 02:27:51;;;;;;;60.73;31.00;;;1.30;99.90;;;;;;5051837;28;20186;-57
2021/11/16 02:30:20;;;;;;;56.17;32.35;;;1.20;99.90;;;;;;5050931;28;20166;-59
2021/11/16 02:32:46;;;;;;;62.80;33.22;;;1.30;99.90;;;;;;5051517;28;20175;-59
2021/11/16 02:35:15;;;;;;;65.50;34.20;;;1.20;99.90;;;;;;5041948;28;20285;-58
2021/11/16 02:37:40;;;;;;;60.25;31.55;;;1.30;99.90;;;;;;5031553;28;20660;-59
2021/11/16 02:40:07;;;;;;;63.67;30.90;;;1.30;99.90;;;;;;5031409;28;20261;-59
2021/11/16 02:42:35;;;;;;;55.15;32.50;;;1.30;99.90;;;;;;5031156;28;20171;-56
2021/11/16 02:45:01;;;;;;;59.22;32.55;;;1.30;99.90;;;;;;5047018;28;20287;-55
2021/11/16 02:47:27;;;;;;;61.38;33.42;;;1.30;99.90;;;;;;5051192;28;20655;-55
2021/11/16 02:49:55;;;;;;;61.92;32.25;;;1.20;99.90;;;;;;5051016;28;20191;-59
2021/11/16 02:52:21;;;;;;;61.90;32.83;;;1.20;99.90;;;;;;5050506;28;20241;-57
2021/11/16 02:54:48;;;;;;;63.30;33.10;;;1.20;99.90;;;;;;5063147;28;20241;-57
2021/11/16 02:57:13;;;;;;;60.65;31.90;;;1.20;99.90;;;;;;5070555;28;20166;-58
2021/11/16 02:59:41;;;;;;;58.87;31.27;;;1.30;99.90;;;;;;5054919;28;20225;-56
2021/11/16 03:02:10;;;;;;;61.20;30.60;;;1.30;99.90;;;;;;5053669;28;20190;-56
2021/11/16 03:04:37;;;;;;;67.13;35.03;;;1.40;99.90;;;;;;5045231;28;20656;-55
2021/11/16 03:07:04;;;;;;;63.20;33.65;;;1.50;99.90;;;;;;5041988;28;20190;-56
2021/11/16 03:09:32;;;;;;;74.15;37.38;;;1.60;99.90;;;;;;5048618;28;20210;-55
2021/11/16 03:11:59;;;;;;;60.72;34.25;;;1.80;99.90;;;;;;5037313;28;20186;-58
2021/11/16 03:14:26;;;;;;;59.63;36.10;;;1.80;99.90;;;;;;5037252;28;20851;-57
2021/11/16 03:16:53;;;;;;;68.15;35.47;;;1.90;99.90;;;;;;5037539;28;20196;-57
2021/11/16 03:19:18;;;;;;;60.92;33.95;;;2.00;99.90;;;;;;5039036;28;20228;-56
2021/11/16 03:21:54;;;;;;;75.73;36.97;;;2.10;99.90;;;;;;5050076;28;20660;-57
2021/11/16 03:24:20;;;;;;;59.78;32.58;;;2.20;99.90;;;;;;5056661;28;20207;-56
2021/11/16 03:26:46;;;;;;;66.50;34.05;;;2.30;99.90;;;;;;5038886;28;20691;-58
2021/11/16 03:29:12;;;;;;;59.97;34.30;;;2.40;99.90;;;;;;5041832;28;20213;-57
2021/11/16 03:31:48;;;;;;;65.87;35.33;;;2.50;99.90;;;;;;5030079;28;20478;-58
2021/11/16 03:34:13;;;;;;;64.97;33.50;;;2.70;99.90;;;;;;5045443;28;20508;-58
2021/11/16 03:36:39;;;;;;;61.80;34.37;;;2.70;99.90;;;;;;5048280;28;20265;-58
2021/11/16 03:39:04;;;;;;;55.70;32.13;;;2.90;99.90;;;;;;5034582;28;20209;-59
2021/11/16 03:41:30;;;;;;;67.80;35.60;;;2.90;99.90;;;;;;5043371;28;20186;-57
2021/11/16 03:43:56;;;;;;;59.50;33.40;;;3.00;99.90;;;;;;5044916;28;20541;-58
2021/11/16 03:46:23;;;;;;;71.67;35.93;;;3.00;99.90;;;;;;5036780;28;20222;-58
2021/11/16 03:48:48;;;;;;;70.00;36.50;;;3.20;99.90;;;;;;5035856;28;20512;-58
2021/11/16 03:51:14;;;;;;;75.53;37.07;;;3.30;99.90;;;;;;5029048;28;20309;-57
2021/11/16 03:53:40;;;;;;;69.05;35.50;;;3.50;99.90;;;;;;5033099;28;20218;-57
2021/11/16 03:56:07;;;;;;;73.55;38.80;;;3.70;99.90;;;;;;5039641;28;20235;-57
2021/11/16 03:58:33;;;;;;;62.10;35.65;;;3.90;99.90;;;;;;5048619;28;20297;-57
2021/11/16 04:01:03;;;;;;;70.60;37.35;;;4.10;99.90;;;;;;5035075;28;20253;-58
2021/11/16 04:03:32;;;;;;;72.47;35.28;;;4.20;99.90;;;;;;5037180;28;20190;-58
2021/11/16 04:05:59;;;;;;;64.93;35.22;;;4.30;99.90;;;;;;5049560;28;20206;-58
2021/11/16 04:08:25;;;;;;;64.55;35.15;;;4.40;99.90;;;;;;5048863;28;20185;-58
2021/11/16 04:10:51;;;;;;;65.93;35.92;;;4.40;99.90;;;;;;5035990;28;20205;-58
2021/11/16 04:13:17;;;;;;;62.83;34.03;;;4.50;99.90;;;;;;5043857;28;20206;-59
2021/11/16 04:15:46;;;;;;;60.30;33.63;;;4.60;99.90;;;;;;5035716;28;20209;-59
2021/11/16 04:18:13;;;;;;;61.22;34.65;;;4.70;99.90;;;;;;5049220;28;20183;-57
2021/11/16 04:20:41;;;;;;;62.08;34.47;;;4.80;99.90;;;;;;5042974;28;20194;-57
2021/11/16 04:23:10;;;;;;;63.17;36.40;;;4.90;99.90;;;;;;5034948;28;20214;-57
2021/11/16 04:25:37;;;;;;;59.17;34.33;;;4.90;99.90;;;;;;5035712;28;20205;-57
2021/11/16 04:28:04;;;;;;;64.25;35.50;;;5.00;99.90;;;;;;5049143;28;20178;-58
2021/11/16 04:30:31;;;;;;;68.28;36.08;;;5.10;99.90;;;;;;5038658;28;20598;-57
2021/11/16 04:32:57;;;;;;;66.72;34.80;;;5.20;99.90;;;;;;5056673;28;20633;-58
2021/11/16 04:35:24;;;;;;;62.25;34.70;;;5.30;99.90;;;;;;5055958;28;20190;-59
2021/11/16 04:37:52;;;;;;;58.03;33.95;;;5.40;99.90;;;;;;5047305;28;20177;-58
2021/11/16 04:40:23;;;;;;;55.90;33.05;;;5.50;99.90;;;;;;5048474;28;20251;-56
2021/11/16 04:42:49;;;;;;;59.00;33.47;;;5.60;99.90;;;;;;5043860;28;20232;-57
2021/11/16 04:45:20;;;;;;;62.10;34.38;;;5.70;99.90;;;;;;5057406;28;20657;-56
2021/11/16 04:48:01;;;;;;;61.70;34.00;;;5.70;99.90;;;;;;5062635;28;20264;-56
2021/11/16 04:50:45;;;;;;;60.92;35.05;;;5.80;99.90;;;;;;5033669;28;20232;-57
2021/11/16 05:04:05;;;;;;;50.88;30.48;;;6.10;99.90;;;;;;5045699;28;20232;-55
2021/11/16 05:06:31;;;;;;;54.37;30.90;;;6.30;99.90;;;;;;5046326;28;20206;-57
2021/11/16 05:08:56;;;;;;;54.40;30.73;;;6.30;99.90;;;;;;5045586;28;20192;-58
2021/11/16 05:11:24;;;;;;;49.57;30.67;;;6.30;99.90;;;;;;5035737;28;20183;-58
2021/11/16 05:13:51;;;;;;;50.65;30.10;;;6.40;99.90;;;;;;5048604;28;20198;-59
2021/11/16 05:16:20;;;;;;;46.95;28.67;;;6.50;99.90;;;;;;5046065;28;20196;-58
2021/11/16 05:18:45;;;;;;;47.40;29.40;;;6.50;99.90;;;;;;5049975;28;20190;-57
2021/11/16 05:21:12;;;;;;;51.07;29.00;;;6.60;99.90;;;;;;5041052;28;20192;-59
2021/11/16 05:23:43;;;;;;;49.70;28.67;;;6.70;99.90;;;;;;5046970;28;20211;-59
2021/11/16 05:26:09;;;;;;;46.28;29.20;;;6.70;99.90;;;;;;5048241;28;20460;-59
2021/11/16 05:28:35;;;;;;;44.05;27.15;;;6.70;99.90;;;;;;5047397;28;20185;-55
2021/11/16 05:31:01;;;;;;;44.53;26.83;;;6.70;99.90;;;;;;5039856;28;20191;-58
2021/11/16 05:33:27;;;;;;;42.22;26.63;;;6.80;99.90;;;;;;5036340;28;20427;-60
2021/11/16 05:35:58;;;;;;;46.13;27.95;;;6.80;99.90;;;;;;5038152;28;20277;-58
2021/11/16 05:38:27;;;;;;;40.10;25.05;;;6.90;99.90;;;;;;5049209;28;20190;-59
2021/11/16 05:40:53;;;;;;;40.95;25.92;;;6.90;99.90;;;;;;5051763;28;20174;-59
2021/11/16 05:43:18;;;;;;;41.70;27.30;;;6.90;99.90;;;;;;5051188;28;20182;-59
2021/11/16 05:45:45;;;;;;;50.93;27.53;;;6.90;99.90;;;;;;5051948;28;20494;-59
2021/11/16 05:48:11;;;;;;;42.50;27.80;;;6.90;99.90;;;;;;5050984;28;20209;-53
2021/11/16 05:50:37;;;;;;;45.33;26.93;;;6.90;99.90;;;;;;5049903;28;20699;-60
2021/11/16 05:53:04;;;;;;;43.00;26.50;;;7.00;99.90;;;;;;5050019;28;20219;-58
2021/11/16 05:55:30;;;;;;;42.58;27.30;;;7.00;99.90;;;;;;5049154;28;20457;-60
2021/11/16 05:57:56;;;;;;;43.07;27.23;;;7.00;99.90;;;;;;5050871;28;20213;-59
2021/11/16 06:00:23;;;;;;;42.03;25.93;;;7.10;99.90;;;;;;5047725;28;20187;-53
2021/11/16 06:02:49;;;;;;;41.03;25.27;;;7.20;99.90;;;;;;5051035;28;20523;-59
2021/11/16 06:05:15;;;;;;;42.83;27.60;;;7.20;99.90;;;;;;5051854;28;20460;-59
2021/11/16 06:07:40;;;;;;;38.43;25.27;;;7.20;99.90;;;;;;5052100;28;20424;-59
2021/11/16 06:10:06;;;;;;;39.47;24.20;;;7.30;99.90;;;;;;5053305;28;20441;-48
2021/11/16 06:12:33;;;;;;;39.33;25.80;;;7.30;99.90;;;;;;5051764;28;20221;-60
2021/11/16 06:14:59;;;;;;;35.33;24.33;;;7.30;99.90;;;;;;5035498;28;20440;-60
2021/11/16 06:17:25;;;;;;;39.70;25.80;;;7.40;99.90;;;;;;5040557;28;20418;-59
2021/11/16 06:19:51;;;;;;;37.30;24.70;;;7.40;99.90;;;;;;5031633;28;20425;-60
2021/11/16 06:22:16;;;;;;;34.60;23.93;;;7.50;99.90;;;;;;5037786;28;20446;-59
2021/11/16 06:24:42;;;;;;;36.10;24.67;;;7.50;99.90;;;;;;5051212;28;20256;-59
2021/11/16 06:27:08;;;;;;;36.60;24.17;;;7.50;99.90;;;;;;5051285;28;20225;-59
2021/11/16 06:29:34;;;;;;;33.73;22.57;;;7.50;99.90;;;;;;5038836;28;20221;-59
2021/11/16 06:31:59;;;;;;;36.20;23.57;;;7.50;99.90;;;;;;5051242;28;20258;-60
2021/11/16 06:34:26;;;;;;;36.07;24.40;;;7.60;99.90;;;;;;5045391;28;20503;-59
2021/11/16 06:36:52;;;;;;;40.27;28.03;;;7.60;99.90;;;;;;5039787;28;20689;-60
2021/11/16 06:39:19;;;;;;;37.17;24.90;;;7.70;99.90;;;;;;5050858;28;20508;-59
2021/11/16 06:41:47;;;;;;;32.17;22.33;;;7.70;99.90;;;;;;5050178;28;20201;-59
2021/11/16 06:44:14;;;;;;;38.07;25.00;;;7.70;99.90;;;;;;5035419;28;20426;-60
2021/11/16 06:46:41;;;;;;;36.03;24.00;;;7.70;99.90;;;;;;5046123;28;20486;-59
2021/11/16 06:49:08;;;;;;;34.60;23.13;;;7.80;99.90;;;;;;5045511;28;20443;-60
2021/11/16 06:51:38;;;;;;;33.83;22.40;;;7.80;99.90;;;;;;5051952;28;20818;-60
2021/11/16 06:54:09;;;;;;;35.03;22.37;;;7.80;99.90;;;;;;5049033;28;20436;-61
2021/11/16 06:56:36;;;;;;;30.90;22.07;;;7.90;99.90;;;;;;5044636;28;20768;-60
2021/11/16 06:59:02;;;;;;;34.13;22.10;;;7.90;99.90;;;;;;5047232;28;20887;-60
2021/11/16 07:01:29;;;;;;;34.53;22.30;;;7.90;99.90;;;;;;5030914;28;20421;-60
2021/11/16 07:03:58;;;;;;;35.83;23.20;;;7.90;99.90;;;;;;5030546;28;20487;-61
2021/11/16 07:06:28;;;;;;;31.63;21.30;;;7.90;99.90;;;;;;5042353;28;20543;-53
2021/11/16 07:08:55;;;;;;;31.27;21.37;;;7.90;99.90;;;;;;5029781;28;20460;-60
2021/11/16 07:11:25;;;;;;;30.43;21.00;;;8.00;99.90;;;;;;5035188;28;20928;-61
2021/11/16 07:13:57;;;;;;;31.80;21.77;;;8.10;99.90;;;;;;5028158;28;20795;-61
2021/11/16 07:16:24;;;;;;;31.47;21.40;;;8.10;99.90;;;;;;5036162;28;20426;-61
2021/11/16 07:18:52;;;;;;;31.63;20.73;;;8.10;99.90;;;;;;5050322;28;20468;-61
2021/11/16 07:21:20;;;;;;;34.17;22.13;;;8.10;99.90;;;;;;5049797;28;20428;-60
2021/11/16 07:24:00;;;;;;;32.10;22.00;;;8.10;99.90;;;;;;5049728;28;20810;-62
2021/11/16 07:26:26;;;;;;;33.27;21.07;;;8.20;99.90;;;;;;5030300;28;20460;-61
2021/11/16 07:28:51;;;;;;;31.00;21.20;;;8.20;99.90;;;;;;5031963;28;20501;-60
2021/11/16 07:31:19;;;;;;;32.07;22.07;;;8.30;99.90;;;;;;5029018;28;20177;-54
2021/11/16 07:33:44;;;;;;;32.00;20.53;;;8.30;99.90;;;;;;5028949;28;20175;-62
2021/11/16 07:36:10;;;;;;;30.60;20.53;;;8.40;99.90;;;;;;5028596;28;20437;-56
2021/11/16 07:38:36;;;;;;;32.70;21.60;;;8.40;99.90;;;;;;5028618;28;20186;-56
2021/11/16 07:41:04;;;;;;;33.13;21.70;;;8.50;99.90;;;;;;5028898;28;20214;-62
2021/11/16 07:43:30;;;;;;;30.93;21.60;;;8.50;99.90;;;;;;5028509;28;20499;-62
2021/11/16 07:45:56;;;;;;;28.97;20.20;;;8.50;99.90;;;;;;5028940;28;20522;-62
2021/11/16 07:48:27;;;;;;;32.20;21.03;;;8.60;99.90;;;;;;5028982;28;20425;-61
2021/11/16 07:51:06;;;;;;;30.60;20.87;;;8.60;99.90;;;;;;5028269;28;20426;-61
2021/11/16 07:53:39;;;;;;;30.00;20.20;;;8.70;99.90;;;;;;5028698;28;21215;-60
2021/11/16 07:56:12;;;;;;;30.03;21.27;;;8.70;99.90;;;;;;5028567;28;20470;-60
2021/11/16 07:58:47;;;;;;;29.57;20.63;;;8.70;99.90;;;;;;5028441;28;20528;-59
2021/11/16 08:01:15;;;;;;;28.70;20.73;;;8.60;99.90;;;;;;5028566;28;20496;-60
2021/11/16 08:06:41;;;;;;;28.60;19.47;;;8.70;99.90;;;;;;5026156;28;20464;-60
2021/11/16 08:09:26;;;;;;;30.67;21.17;;;8.80;99.90;;;;;;5024862;28;20394;-62
2021/11/16 08:12:09;;;;;;;28.40;19.67;;;8.80;99.90;;;;;;5047839;28;20421;-61
2021/11/16 08:14:35;;;;;;;27.17;20.30;;;8.80;99.90;;;;;;5033924;28;20406;-60
2021/11/16 08:17:04;;;;;;;30.60;20.77;;;8.90;99.90;;;;;;5029700;28;20424;-60
2021/11/16 08:19:33;;;;;;;27.03;19.00;;;9.00;99.90;;;;;;5028563;28;20418;-61
2021/11/16 08:22:15;;;;;;;27.93;19.67;;;9.10;99.90;;;;;;5035821;28;21302;-60
2021/11/16 08:24:45;;;;;;;31.17;20.93;;;9.20;99.90;;;;;;5048544;28;20413;-60
2021/11/16 08:27:13;;;;;;;28.37;20.10;;;9.10;99.90;;;;;;5043116;28;21021;-63
2021/11/16 08:29:42;;;;;;;32.77;20.90;;;9.20;99.90;;;;;;5028337;28;20418;-63
2021/11/16 08:32:13;;;;;;;27.53;20.03;;;9.20;99.90;;;;;;5030016;28;20410;-63
2021/11/16 08:34:42;;;;;;;30.43;20.33;;;9.30;99.90;;;;;;5046746;28;20416;-62
2021/11/16 08:37:10;;;;;;;30.50;21.30;;;9.40;99.90;;;;;;5046873;28;20456;-63
2021/11/16 08:39:41;;;;;;;28.30;19.50;;;9.50;99.90;;;;;;5039212;28;20425;-63
2021/11/16 08:42:15;;;;;;;28.00;21.23;;;9.50;99.90;;;;;;5044612;28;20420;-60
2021/11/16 08:44:48;;;;;;;27.30;20.33;;;9.50;99.90;;;;;;5048065;28;20816;-63
2021/11/16 08:47:15;;;;;;;30.30;20.43;;;9.70;99.90;;;;;;5048118;28;20503;-59
2021/11/16 08:49:42;;;;;;;28.30;21.20;;;9.80;99.90;;;;;;5048432;28;20427;-61
2021/11/16 08:52:16;;;;;;;28.37;20.90;;;9.70;99.90;;;;;;5034699;28;20464;-53
2021/11/16 08:54:54;;;;;;;31.07;21.80;;;9.80;99.90;;;;;;5048310;28;20421;-60
2021/11/16 08:57:21;;;;;;;31.27;21.23;;;9.80;99.90;;;;;;5047518;28;20440;-61
2021/11/16 08:59:47;;;;;;;26.07;20.50;;;9.70;99.90;;;;;;5048203;28;20910;-60
2021/11/16 09:02:13;;;;;;;24.30;19.30;;;9.70;99.90;;;;;;5033423;28;20436;-60
2021/11/16 09:04:42;;;;;;;27.80;20.90;;;9.70;99.90;;;;;;5028400;28;21152;-60
2021/11/16 09:07:29;;;;;;;26.23;19.93;;;9.90;99.90;;;;;;5037707;28;20559;-60
2021/11/16 09:09:57;;;;;;;29.50;20.03;;;10.10;99.90;;;;;;5030520;28;20424;-60
2021/11/16 09:12:42;;;;;;;26.50;20.07;;;10.20;99.90;;;;;;5044447;28;20512;-60
2021/11/16 09:29:05;;;;;;;27.00;21.70;;;10.00;99.90;;;;;;4398549;28;20449;-53
2021/11/16 09:31:42;;;;;;;26.50;20.23;;;10.10;99.90;;;;;;5031816;28;20451;-52
2021/11/16 09:34:36;;;;;;;29.20;20.87;;;10.10;99.90;;;;;;5045452;28;20524;-58
2021/11/16 09:37:04;;;;;;;26.43;19.60;;;10.10;99.90;;;;;;5051711;28;20412;-53
2021/11/16 09:39:37;;;;;;;26.67;20.50;;;10.10;99.90;;;;;;5051624;28;20731;-52
2021/11/16 09:42:06;;;;;;;28.03;20.13;;;10.00;99.90;;;;;;5051428;28;20440;-56
2021/11/16 09:44:42;;;;;;;28.20;19.97;;;10.10;99.90;;;;;;5055264;28;20429;-53
2021/11/16 09:47:24;;;;;;;25.27;19.90;;;10.10;99.90;;;;;;5050912;28;20499;-54
2021/11/16 10:37:03;;;;;;;29.53;21.17;;;10.70;99.90;;;;;;5111840;22;20585;-51
2021/11/16 10:39:28;;;;;;;25.63;21.83;;;10.70;99.90;;;;;;5029429;28;20874;-53
2021/11/16 10:41:56;;;;;;;25.57;19.70;;;10.90;99.90;;;;;;5029730;28;20444;-51
2021/11/16 10:44:23;;;;;;;25.17;20.27;;;11.20;99.90;;;;;;5030581;28;20183;-57
2021/11/16 10:46:49;;;;;;;24.80;19.30;;;11.30;99.90;;;;;;5029697;28;20486;-51
2021/11/16 10:49:19;;;;;;;24.63;20.30;;;11.40;99.90;;;;;;5012229;28;20418;-52
2021/11/16 10:51:47;;;;;;;24.03;19.53;;;11.20;99.90;;;;;;5029456;28;20179;-50
2021/11/16 10:54:13;;;;;;;26.20;21.87;;;11.20;99.90;;;;;;5030466;28;20416;-51
2021/11/16 10:56:41;;;;;;;25.63;21.00;;;11.20;99.90;;;;;;5029355;28;20414;-51
2021/11/16 10:59:10;;;;;;;26.03;20.77;;;11.30;99.90;;;;;;5029803;28;20861;-51
2021/11/16 11:01:47;;;;;;;22.23;19.43;;;11.40;99.90;;;;;;5029473;28;20433;-53
2021/11/16 11:04:14;;;;;;;26.53;20.83;;;11.60;99.90;;;;;;5029648;28;20431;-49
2021/11/16 11:06:43;;;;;;;23.07;19.67;;;11.60;99.90;;;;;;5029705;28;20540;-54
2021/11/16 11:09:09;;;;;;;25.70;20.80;;;11.90;99.90;;;;;;5021671;28;20438;-54
2021/11/16 11:11:41;;;;;;;21.43;19.10;;;12.10;99.60;;;;;;4992176;28;20514;-53
2021/11/16 11:14:32;;;;;;;23.67;20.53;;;12.30;99.00;;;;;;5017575;28;20459;-54
2021/11/16 11:17:00;;;;;;;26.00;22.23;;;12.30;97.80;;;;;;5029542;28;20422;-54
2021/11/16 11:19:29;;;;;;;25.63;21.00;;;12.20;98.20;;;;;;5029362;28;20418;-55
2021/11/16 11:22:09;;;;;;;24.73;20.00;;;12.20;98.40;;;;;;5026084;28;21121;-55
2021/11/16 11:24:59;;;;;;;24.30;20.53;;;12.30;98.30;;;;;;5026559;28;20482;-52
2021/11/16 11:27:37;;;;;;;22.87;20.40;;;12.50;98.00;;;;;;5022344;28;20476;-55
2021/11/16 11:30:13;;;;;;;24.40;21.20;;;12.60;97.30;;;;;;5029460;28;20483;-56
2021/11/16 11:32:41;;;;;;;23.93;20.67;;;12.30;97.20;;;;;;5027752;28;20425;-50
2021/11/16 11:35:10;;;;;;;24.10;20.87;;;12.30;98.00;;;;;;5027061;28;20438;-53
2021/11/16 11:37:44;;;;;;;23.30;20.57;;;12.60;97.60;;;;;;5028846;28;20496;-54
2021/11/16 11:40:26;;;;;;;25.10;21.60;;;13.00;96.80;;;;;;5028251;28;20441;-53
2021/11/16 11:43:03;;;;;;;22.73;20.33;;;13.00;95.40;;;;;;5028116;28;20426;-51
2021/11/16 11:45:38;;;;;;;24.73;21.20;;;12.90;96.10;;;;;;5028869;28;20509;-53
2021/11/16 11:48:03;;;;;;;23.77;20.70;;;13.10;95.50;;;;;;5027849;28;20926;-56
2021/11/16 11:50:32;;;;;;;25.33;20.57;;;13.10;95.10;;;;;;5027673;28;20453;-52
2021/11/16 11:53:00;;;;;;;23.40;20.90;;;12.70;95.20;;;;;;5028609;28;20174;-52
2021/11/16 11:55:28;;;;;;;24.23;20.97;;;12.60;95.50;;;;;;5028328;28;20429;-54
2021/11/16 11:57:54;;;;;;;25.00;21.37;;;12.60;95.70;;;;;;5027652;28;20433;-54
2021/11/16 12:00:20;;;;;;;22.20;19.80;;;12.70;95.60;;;;;;5028763;28;20425;-54
2021/11/16 12:02:51;;;;;;;24.03;20.70;;;12.60;94.70;;;;;;5010434;28;20429;-55
2021/11/16 12:05:17;;;;;;;23.50;19.93;;;12.60;94.90;;;;;;5027791;28;20453;-56
2021/11/16 12:07:43;;;;;;;25.20;20.33;;;13.00;94.60;;;;;;5027479;28;20461;-56
2021/11/16 12:10:09;;;;;;;24.10;20.90;;;13.00;94.20;;;;;;5028745;28;20525;-55
2021/11/16 12:12:36;;;;;;;23.30;20.23;;;13.20;93.90;;;;;;5028040;28;20445;-55
2021/11/16 12:15:08;;;;;;;23.97;21.13;;;13.70;93.10;;;;;;5028514;28;20418;-55
2021/11/16 12:17:46;;;;;;;24.03;21.50;;;13.80;92.30;;;;;;5015437;28;20430;-53
2021/11/16 12:20:36;;;;;;;25.10;20.40;;;13.40;92.70;;;;;;5028027;28;20953;-54
2021/11/16 12:23:03;;;;;;;23.43;20.97;;;13.60;92.50;;;;;;5021453;28;20463;-54
2021/11/16 12:25:29;;;;;;;22.97;19.97;;;13.70;92.40;;;;;;5024853;28;20473;-53
2021/11/16 12:27:56;;;;;;;23.07;20.67;;;13.40;92.70;;;;;;5018771;28;20484;-57
2021/11/16 12:30:39;;;;;;;22.67;20.27;;;13.60;92.80;;;;;;5019959;28;20525;-52
2021/11/16 12:33:05;;;;;;;22.20;19.73;;;13.90;92.10;;;;;;5018952;28;20409;-57
2021/11/16 12:35:32;;;;;;;23.27;20.50;;;13.80;91.50;;;;;;5021121;28;20431;-55
2021/11/16 12:37:59;;;;;;;24.10;21.53;;;13.60;91.80;;;;;;5019861;28;20565;-54
2021/11/16 12:40:31;;;;;;;23.83;20.10;;;13.60;91.90;;;;;;5006981;28;20573;-56
2021/11/16 12:43:07;;;;;;;22.60;20.10;;;13.70;91.60;;;;;;5000354;28;20410;-54
2021/11/16 12:45:38;;;;;;;22.57;20.10;;;14.00;91.30;;;;;;5002325;28;20494;-55
2021/11/16 12:48:05;;;;;;;22.83;20.10;;;14.30;89.70;;;;;;5007323;28;20473;-53
2021/11/16 12:50:31;;;;;;;22.77;20.40;;;13.70;90.70;;;;;;5010446;28;20425;-55
2021/11/16 12:52:57;;;;;;;23.00;20.50;;;13.30;91.60;;;;;;5002907;28;20493;-51
2021/11/16 12:55:27;;;;;;;23.33;20.57;;;13.30;91.90;;;;;;5014387;28;20513;-57
2021/11/16 12:57:54;;;;;;;26.27;21.23;;;13.60;91.80;;;;;;5010026;28;20165;-56
2021/11/16 13:00:52;;;;;;;23.47;21.00;;;13.80;91.40;;;;;;5007249;28;20427;-60
2021/11/16 13:03:38;;;;;;;23.93;21.37;;;13.30;91.10;;;;;;5002931;28;20458;-54
2021/11/16 13:06:12;;;;;;;24.50;20.83;;;13.10;92.00;;;;;;4994048;28;20470;-56
2021/11/16 13:08:38;;;;;;;24.37;21.00;;;13.10;92.30;;;;;;5012474;28;20443;-59
2021/11/16 13:11:04;;;;;;;24.30;20.87;;;13.00;92.50;;;;;;5012114;28;20901;-58
2021/11/16 13:13:31;;;;;;;23.60;20.57;;;13.10;92.50;;;;;;5011841;28;20746;-60
2021/11/16 13:16:03;;;;;;;28.27;22.43;;;12.80;92.70;;;;;;4994594;28;20565;-59
2021/11/16 13:18:38;;;;;;;26.57;21.53;;;12.20;93.60;;;;;;4999591;28;20509;-59
2021/11/16 13:21:19;;;;;;;25.30;21.67;;;12.40;93.90;;;;;;5011450;28;21203;-58
2021/11/16 13:23:51;;;;;;;25.67;21.80;;;12.30;93.70;;;;;;5011956;28;20430;-59
2021/11/16 13:26:43;;;;;;;27.83;22.97;;;12.00;94.50;;;;;;5011853;28;20469;-60
2021/11/16 13:29:31;;;;;;;26.67;21.13;;;11.60;95.60;;;;;;5011496;28;20552;-61
2021/11/16 13:32:06;;;;;;;26.70;22.30;;;11.50;96.40;;;;;;5015366;28;20496;-58
2021/11/16 13:34:36;;;;;;;25.77;21.80;;;11.50;96.50;;;;;;5000384;28;20435;-53
2021/11/16 13:37:16;;;;;;;27.60;23.20;;;11.40;97.00;;;;;;5005342;28;20492;-59
2021/11/16 13:39:42;;;;;;;29.13;23.30;;;11.10;97.30;;;;;;5009286;28;20426;-55
2021/11/16 13:42:20;;;;;;;27.13;22.40;;;11.10;97.90;;;;;;5006815;28;20430;-57
2021/11/16 13:45:06;;;;;;;29.03;22.63;;;11.20;98.10;;;;;;5006331;28;21034;-58
2021/11/16 13:47:40;;;;;;;29.93;23.97;;;11.10;98.40;;;;;;5001178;28;20466;-58
2021/11/16 13:50:27;;;;;;;29.60;23.30;;;11.00;98.30;;;;;;4992668;28;20796;-55
2021/11/16 13:52:57;;;;;;;28.70;22.73;;;11.00;98.50;;;;;;4992644;28;20416;-56
2021/11/16 13:55:32;;;;;;;26.60;23.07;;;11.00;98.60;;;;;;4997530;28;20415;-54
2021/11/16 13:58:01;;;;;;;26.13;22.33;;;11.00;98.80;;;;;;5009706;28;21032;-55
2021/11/16 14:00:30;;;;;;;28.47;23.27;;;11.00;98.80;;;;;;5010531;28;20425;-55